sensor_id;sensor_type;location;lat;lon;timestamp;temperature;humidity
15156;DHT22;7678;50.058;8.306;2023-06-26T00:00:11;21.20;82.30
15156;DHT22;7678;50.058;8.306;2023-06-26T00:02:39;21.30;81.60
15156;DHT22;7678;50.058;8.306;2023-06-26T00:05:08;21.40;80.60
15156;DHT22;7678;50.058;8.306;2023-06-26T00:07:37;21.20;82.20
15156;DHT22;7678;50.058;8.306;2023-06-26T00:10:07;21.20;81.80
15156;DHT22;7678;50.058;8.306;2023-06-26T00:12:35;21.20;82.40
15156;DHT22;7678;50.058;8.306;2023-06-26T00:15:03;20.90;82.40
15156;DHT22;7678;50.058;8.306;2023-06-26T00:17:32;21.30;81.50
15156;DHT22;7678;50.058;8.306;2023-06-26T00:20:04;21.50;80.30
15156;DHT22;7678;50.058;8.306;2023-06-26T00:22:33;21.50;80.10
15156;DHT22;7678;50.058;8.306;2023-06-26T00:25:03;21.20;81.30
15156;DHT22;7678;50.058;8.306;2023-06-26T00:27:31;21.10;81.70
15156;DHT22;7678;50.058;8.306;2023-06-26T00:29:59;21.00;81.90
15156;DHT22;7678;50.058;8.306;2023-06-26T00:32:28;21.00;83.10
15156;DHT22;7678;50.058;8.306;2023-06-26T00:34:56;21.10;82.10
15156;DHT22;7678;50.058;8.306;2023-06-26T00:37:25;20.90;83.50
15156;DHT22;7678;50.058;8.306;2023-06-26T00:39:54;20.80;86.50
15156;DHT22;7678;50.058;8.306;2023-06-26T00:42:23;20.60;88.40
15156;DHT22;7678;50.058;8.306;2023-06-26T00:44:51;20.50;89.30
15156;DHT22;7678;50.058;8.306;2023-06-26T00:47:19;20.50;89.50
15156;DHT22;7678;50.058;8.306;2023-06-26T00:49:48;20.30;90.40
15156;DHT22;7678;50.058;8.306;2023-06-26T00:52:17;20.30;90.90
15156;DHT22;7678;50.058;8.306;2023-06-26T00:54:45;20.40;90.60
15156;DHT22;7678;50.058;8.306;2023-06-26T00:57:14;20.20;91.60
15156;DHT22;7678;50.058;8.306;2023-06-26T00:59:44;20.00;92.60
15156;DHT22;7678;50.058;8.306;2023-06-26T01:02:12;20.00;92.20
15156;DHT22;7678;50.058;8.306;2023-06-26T01:04:44;20.20;91.90
15156;DHT22;7678;50.058;8.306;2023-06-26T01:07:14;20.30;91.70
15156;DHT22;7678;50.058;8.306;2023-06-26T01:09:43;20.20;92.00
15156;DHT22;7678;50.058;8.306;2023-06-26T01:12:11;20.10;92.40
15156;DHT22;7678;50.058;8.306;2023-06-26T01:14:39;20.00;92.20
15156;DHT22;7678;50.058;8.306;2023-06-26T01:17:09;19.90;92.40
15156;DHT22;7678;50.058;8.306;2023-06-26T01:19:41;19.90;92.50
15156;DHT22;7678;50.058;8.306;2023-06-26T01:22:29;19.90;92.40
15156;DHT22;7678;50.058;8.306;2023-06-26T01:25:11;19.90;92.90
15156;DHT22;7678;50.058;8.306;2023-06-26T01:27:48;20.00;92.30
15156;DHT22;7678;50.058;8.306;2023-06-26T01:30:20;19.90;92.70
15156;DHT22;7678;50.058;8.306;2023-06-26T01:32:49;19.80;92.60
15156;DHT22;7678;50.058;8.306;2023-06-26T01:35:18;19.70;92.90
15156;DHT22;7678;50.058;8.306;2023-06-26T01:37:46;19.60;93.00
15156;DHT22;7678;50.058;8.306;2023-06-26T01:40:14;19.60;93.10
15156;DHT22;7678;50.058;8.306;2023-06-26T01:42:42;19.90;92.80
15156;DHT22;7678;50.058;8.306;2023-06-26T01:45:16;20.00;92.20
15156;DHT22;7678;50.058;8.306;2023-06-26T01:47:50;19.80;92.60
15156;DHT22;7678;50.058;8.306;2023-06-26T01:50:22;19.90;92.90
15156;DHT22;7678;50.058;8.306;2023-06-26T01:52:57;19.90;93.00
15156;DHT22;7678;50.058;8.306;2023-06-26T01:55:32;19.90;92.90
15156;DHT22;7678;50.058;8.306;2023-06-26T01:58:02;19.90;92.80
15156;DHT22;7678;50.058;8.306;2023-06-26T02:00:32;19.50;93.30
15156;DHT22;7678;50.058;8.306;2023-06-26T02:03:01;19.30;94.10
15156;DHT22;7678;50.058;8.306;2023-06-26T02:05:30;19.30;94.50
15156;DHT22;7678;50.058;8.306;2023-06-26T02:07:58;19.40;94.50
15156;DHT22;7678;50.058;8.306;2023-06-26T02:10:28;19.50;93.90
15156;DHT22;7678;50.058;8.306;2023-06-26T02:12:56;19.50;93.90
15156;DHT22;7678;50.058;8.306;2023-06-26T02:15:24;19.20;94.80
15156;DHT22;7678;50.058;8.306;2023-06-26T02:17:54;19.50;94.70
15156;DHT22;7678;50.058;8.306;2023-06-26T02:20:22;19.20;95.30
15156;DHT22;7678;50.058;8.306;2023-06-26T02:22:50;18.90;96.40
15156;DHT22;7678;50.058;8.306;2023-06-26T02:25:18;19.00;96.30
15156;DHT22;7678;50.058;8.306;2023-06-26T02:27:46;18.90;96.30
15156;DHT22;7678;50.058;8.306;2023-06-26T02:30:14;19.00;97.20
15156;DHT22;7678;50.058;8.306;2023-06-26T02:32:42;19.20;96.40
15156;DHT22;7678;50.058;8.306;2023-06-26T02:35:12;19.30;95.90
15156;DHT22;7678;50.058;8.306;2023-06-26T02:37:40;19.60;95.70
15156;DHT22;7678;50.058;8.306;2023-06-26T02:40:09;19.50;95.70
15156;DHT22;7678;50.058;8.306;2023-06-26T02:42:38;19.50;96.00
15156;DHT22;7678;50.058;8.306;2023-06-26T02:45:07;19.40;96.00
15156;DHT22;7678;50.058;8.306;2023-06-26T02:47:35;19.20;96.40
15156;DHT22;7678;50.058;8.306;2023-06-26T02:50:09;19.70;95.30
15156;DHT22;7678;50.058;8.306;2023-06-26T02:52:38;19.10;96.40
15156;DHT22;7678;50.058;8.306;2023-06-26T02:55:07;19.10;96.60
15156;DHT22;7678;50.058;8.306;2023-06-26T02:57:35;18.90;97.30
15156;DHT22;7678;50.058;8.306;2023-06-26T03:00:03;18.60;98.10
15156;DHT22;7678;50.058;8.306;2023-06-26T03:02:35;18.70;98.10
15156;DHT22;7678;50.058;8.306;2023-06-26T03:05:03;18.40;98.60
15156;DHT22;7678;50.058;8.306;2023-06-26T03:07:31;18.20;99.50
15156;DHT22;7678;50.058;8.306;2023-06-26T03:10:01;18.50;99.60
15156;DHT22;7678;50.058;8.306;2023-06-26T03:12:29;18.70;98.60
15156;DHT22;7678;50.058;8.306;2023-06-26T03:14:57;18.60;99.10
15156;DHT22;7678;50.058;8.306;2023-06-26T03:17:25;18.80;98.40
15156;DHT22;7678;50.058;8.306;2023-06-26T03:19:53;18.90;98.40
15156;DHT22;7678;50.058;8.306;2023-06-26T03:22:21;19.00;98.30
15156;DHT22;7678;50.058;8.306;2023-06-26T03:24:49;18.70;99.50
15156;DHT22;7678;50.058;8.306;2023-06-26T03:27:19;18.60;99.90
15156;DHT22;7678;50.058;8.306;2023-06-26T03:29:47;18.70;99.70
15156;DHT22;7678;50.058;8.306;2023-06-26T03:32:15;18.60;99.90
15156;DHT22;7678;50.058;8.306;2023-06-26T03:34:46;18.60;99.70
15156;DHT22;7678;50.058;8.306;2023-06-26T03:37:14;18.50;99.50
15156;DHT22;7678;50.058;8.306;2023-06-26T03:39:42;18.60;99.90
15156;DHT22;7678;50.058;8.306;2023-06-26T03:42:10;18.90;99.40
15156;DHT22;7678;50.058;8.306;2023-06-26T03:44:39;18.60;99.90
15156;DHT22;7678;50.058;8.306;2023-06-26T03:47:07;18.90;99.10
15156;DHT22;7678;50.058;8.306;2023-06-26T03:49:36;18.80;98.90
15156;DHT22;7678;50.058;8.306;2023-06-26T03:52:05;18.70;99.30
15156;DHT22;7678;50.058;8.306;2023-06-26T03:54:34;18.60;99.50
15156;DHT22;7678;50.058;8.306;2023-06-26T03:57:03;18.50;99.80
15156;DHT22;7678;50.058;8.306;2023-06-26T03:59:31;18.60;99.90
15156;DHT22;7678;50.058;8.306;2023-06-26T04:02:01;18.80;99.40
15156;DHT22;7678;50.058;8.306;2023-06-26T04:04:30;18.80;99.10
15156;DHT22;7678;50.058;8.306;2023-06-26T04:06:58;18.80;99.20
15156;DHT22;7678;50.058;8.306;2023-06-26T04:09:28;18.70;99.50
15156;DHT22;7678;50.058;8.306;2023-06-26T04:11:56;18.90;98.90
15156;DHT22;7678;50.058;8.306;2023-06-26T04:14:24;18.80;99.50
15156;DHT22;7678;50.058;8.306;2023-06-26T04:16:52;19.00;98.70
15156;DHT22;7678;50.058;8.306;2023-06-26T04:19:22;19.10;98.30
15156;DHT22;7678;50.058;8.306;2023-06-26T04:21:50;18.90;98.50
15156;DHT22;7678;50.058;8.306;2023-06-26T04:24:18;18.70;99.70
15156;DHT22;7678;50.058;8.306;2023-06-26T04:26:46;18.80;99.90
15156;DHT22;7678;50.058;8.306;2023-06-26T04:29:15;18.70;99.90
15156;DHT22;7678;50.058;8.306;2023-06-26T04:31:43;18.80;99.70
15156;DHT22;7678;50.058;8.306;2023-06-26T04:34:13;19.10;98.60
15156;DHT22;7678;50.058;8.306;2023-06-26T04:36:43;19.30;98.10
15156;DHT22;7678;50.058;8.306;2023-06-26T04:39:13;19.20;98.20
15156;DHT22;7678;50.058;8.306;2023-06-26T04:41:42;19.20;98.60
15156;DHT22;7678;50.058;8.306;2023-06-26T04:44:10;19.40;98.00
15156;DHT22;7678;50.058;8.306;2023-06-26T04:46:38;19.40;97.90
15156;DHT22;7678;50.058;8.306;2023-06-26T04:49:07;19.20;98.50
15156;DHT22;7678;50.058;8.306;2023-06-26T04:51:36;19.20;98.70
15156;DHT22;7678;50.058;8.306;2023-06-26T04:54:09;19.40;98.10
15156;DHT22;7678;50.058;8.306;2023-06-26T04:56:38;19.30;98.90
15156;DHT22;7678;50.058;8.306;2023-06-26T04:59:07;19.30;99.00
15156;DHT22;7678;50.058;8.306;2023-06-26T05:01:40;19.70;97.90
15156;DHT22;7678;50.058;8.306;2023-06-26T05:04:08;19.90;96.70
15156;DHT22;7678;50.058;8.306;2023-06-26T05:06:36;19.90;96.80
15156;DHT22;7678;50.058;8.306;2023-06-26T05:09:04;20.00;96.80
15156;DHT22;7678;50.058;8.306;2023-06-26T05:11:34;20.20;96.50
15156;DHT22;7678;50.058;8.306;2023-06-26T05:14:06;20.10;96.70
15156;DHT22;7678;50.058;8.306;2023-06-26T05:16:36;20.00;96.60
15156;DHT22;7678;50.058;8.306;2023-06-26T05:19:04;19.90;96.40
15156;DHT22;7678;50.058;8.306;2023-06-26T05:21:33;20.20;96.60
15156;DHT22;7678;50.058;8.306;2023-06-26T05:24:02;20.40;96.90
15156;DHT22;7678;50.058;8.306;2023-06-26T05:26:31;20.40;95.10
15156;DHT22;7678;50.058;8.306;2023-06-26T05:29:01;20.20;95.60
15156;DHT22;7678;50.058;8.306;2023-06-26T05:31:31;20.10;96.10
15156;DHT22;7678;50.058;8.306;2023-06-26T05:34:03;20.20;97.10
15156;DHT22;7678;50.058;8.306;2023-06-26T05:36:34;20.50;96.10
15156;DHT22;7678;50.058;8.306;2023-06-26T05:39:03;20.80;95.30
15156;DHT22;7678;50.058;8.306;2023-06-26T05:41:32;21.00;93.60
15156;DHT22;7678;50.058;8.306;2023-06-26T05:44:01;20.90;93.70
15156;DHT22;7678;50.058;8.306;2023-06-26T05:46:29;21.10;93.80
15156;DHT22;7678;50.058;8.306;2023-06-26T05:48:58;20.90;93.50
15156;DHT22;7678;50.058;8.306;2023-06-26T05:51:26;20.80;94.40
15156;DHT22;7678;50.058;8.306;2023-06-26T05:53:55;20.90;94.90
15156;DHT22;7678;50.058;8.306;2023-06-26T05:56:24;20.80;95.30
15156;DHT22;7678;50.058;8.306;2023-06-26T05:58:53;20.90;95.50
15156;DHT22;7678;50.058;8.306;2023-06-26T06:01:22;21.10;95.60
15156;DHT22;7678;50.058;8.306;2023-06-26T06:03:51;21.50;94.40
15156;DHT22;7678;50.058;8.306;2023-06-26T06:06:19;21.70;93.30
15156;DHT22;7678;50.058;8.306;2023-06-26T06:08:47;21.60;93.40
15156;DHT22;7678;50.058;8.306;2023-06-26T06:11:16;21.70;92.40
15156;DHT22;7678;50.058;8.306;2023-06-26T06:13:45;22.00;92.10
15156;DHT22;7678;50.058;8.306;2023-06-26T06:16:13;22.10;91.80
15156;DHT22;7678;50.058;8.306;2023-06-26T06:18:43;22.20;93.20
15156;DHT22;7678;50.058;8.306;2023-06-26T06:21:11;22.20;92.80
15156;DHT22;7678;50.058;8.306;2023-06-26T06:23:39;22.20;92.10
15156;DHT22;7678;50.058;8.306;2023-06-26T06:26:07;22.20;92.20
15156;DHT22;7678;50.058;8.306;2023-06-26T06:28:36;22.30;92.00
15156;DHT22;7678;50.058;8.306;2023-06-26T06:31:05;22.30;90.20
15156;DHT22;7678;50.058;8.306;2023-06-26T06:33:33;22.40;89.20
15156;DHT22;7678;50.058;8.306;2023-06-26T06:36:03;22.30;90.20
15156;DHT22;7678;50.058;8.306;2023-06-26T06:38:31;22.60;89.60
15156;DHT22;7678;50.058;8.306;2023-06-26T06:41:00;22.70;90.60
15156;DHT22;7678;50.058;8.306;2023-06-26T06:43:30;22.70;90.30
15156;DHT22;7678;50.058;8.306;2023-06-26T06:45:58;22.90;87.60
15156;DHT22;7678;50.058;8.306;2023-06-26T06:48:26;23.00;86.30
15156;DHT22;7678;50.058;8.306;2023-06-26T06:50:54;22.70;84.20
15156;DHT22;7678;50.058;8.306;2023-06-26T06:53:27;22.80;85.00
15156;DHT22;7678;50.058;8.306;2023-06-26T06:55:55;22.80;84.70
15156;DHT22;7678;50.058;8.306;2023-06-26T06:58:23;23.00;85.20
15156;DHT22;7678;50.058;8.306;2023-06-26T07:00:51;23.20;80.20
15156;DHT22;7678;50.058;8.306;2023-06-26T07:03:20;23.20;87.00
15156;DHT22;7678;50.058;8.306;2023-06-26T07:05:49;23.20;82.30
15156;DHT22;7678;50.058;8.306;2023-06-26T07:08:17;23.10;81.60
15156;DHT22;7678;50.058;8.306;2023-06-26T07:10:48;23.40;82.10
15156;DHT22;7678;50.058;8.306;2023-06-26T07:13:17;23.40;77.00
15156;DHT22;7678;50.058;8.306;2023-06-26T07:15:48;23.50;80.30
15156;DHT22;7678;50.058;8.306;2023-06-26T07:18:17;23.60;77.70
15156;DHT22;7678;50.058;8.306;2023-06-26T07:20:49;23.60;78.80
15156;DHT22;7678;50.058;8.306;2023-06-26T07:23:18;23.80;79.60
15156;DHT22;7678;50.058;8.306;2023-06-26T07:25:51;23.90;71.10
15156;DHT22;7678;50.058;8.306;2023-06-26T07:28:20;24.20;71.40
15156;DHT22;7678;50.058;8.306;2023-06-26T07:30:48;24.30;67.40
15156;DHT22;7678;50.058;8.306;2023-06-26T07:33:16;24.30;63.70
15156;DHT22;7678;50.058;8.306;2023-06-26T07:35:44;24.40;65.10
15156;DHT22;7678;50.058;8.306;2023-06-26T07:38:12;24.60;64.40
15156;DHT22;7678;50.058;8.306;2023-06-26T07:40:41;24.60;68.40
15156;DHT22;7678;50.058;8.306;2023-06-26T07:43:10;24.60;65.10
15156;DHT22;7678;50.058;8.306;2023-06-26T07:45:38;24.70;64.70
15156;DHT22;7678;50.058;8.306;2023-06-26T07:48:06;25.00;66.40
15156;DHT22;7678;50.058;8.306;2023-06-26T07:50:38;25.00;60.30
15156;DHT22;7678;50.058;8.306;2023-06-26T07:53:07;25.30;60.00
15156;DHT22;7678;50.058;8.306;2023-06-26T07:55:35;25.70;61.80
15156;DHT22;7678;50.058;8.306;2023-06-26T07:58:03;26.00;64.10
15156;DHT22;7678;50.058;8.306;2023-06-26T08:00:32;26.00;61.40
15156;DHT22;7678;50.058;8.306;2023-06-26T08:03:00;25.70;65.30
15156;DHT22;7678;50.058;8.306;2023-06-26T08:05:32;25.60;66.50
15156;DHT22;7678;50.058;8.306;2023-06-26T08:08:01;25.50;64.50
15156;DHT22;7678;50.058;8.306;2023-06-26T08:10:29;25.40;65.70
15156;DHT22;7678;50.058;8.306;2023-06-26T08:12:58;25.30;65.00
15156;DHT22;7678;50.058;8.306;2023-06-26T08:15:28;25.20;65.90
15156;DHT22;7678;50.058;8.306;2023-06-26T08:17:57;25.40;65.10
15156;DHT22;7678;50.058;8.306;2023-06-26T08:20:27;25.50;62.20
15156;DHT22;7678;50.058;8.306;2023-06-26T08:23:06;25.60;63.20
15156;DHT22;7678;50.058;8.306;2023-06-26T08:25:37;25.60;62.40
15156;DHT22;7678;50.058;8.306;2023-06-26T08:28:16;25.70;62.00
15156;DHT22;7678;50.058;8.306;2023-06-26T08:30:46;25.80;62.30
15156;DHT22;7678;50.058;8.306;2023-06-26T08:33:15;26.10;61.50
15156;DHT22;7678;50.058;8.306;2023-06-26T08:35:43;26.40;62.00
15156;DHT22;7678;50.058;8.306;2023-06-26T08:38:11;26.50;61.90
15156;DHT22;7678;50.058;8.306;2023-06-26T08:40:39;26.90;59.70
15156;DHT22;7678;50.058;8.306;2023-06-26T08:43:07;27.00;59.30
15156;DHT22;7678;50.058;8.306;2023-06-26T08:45:43;26.60;59.50
15156;DHT22;7678;50.058;8.306;2023-06-26T08:48:14;26.50;60.00
15156;DHT22;7678;50.058;8.306;2023-06-26T08:50:43;26.30;60.60
15156;DHT22;7678;50.058;8.306;2023-06-26T08:53:26;26.50;61.90
15156;DHT22;7678;50.058;8.306;2023-06-26T08:55:58;26.80;59.70
15156;DHT22;7678;50.058;8.306;2023-06-26T08:58:30;26.70;59.10
15156;DHT22;7678;50.058;8.306;2023-06-26T09:00:59;26.70;58.90
15156;DHT22;7678;50.058;8.306;2023-06-26T09:03:31;26.80;58.80
15156;DHT22;7678;50.058;8.306;2023-06-26T09:05:59;26.70;61.10
15156;DHT22;7678;50.058;8.306;2023-06-26T09:08:28;26.80;59.50
15156;DHT22;7678;50.058;8.306;2023-06-26T09:10:57;26.90;58.60
15156;DHT22;7678;50.058;8.306;2023-06-26T09:13:28;26.80;59.90
15156;DHT22;7678;50.058;8.306;2023-06-26T09:15:58;27.00;59.90
15156;DHT22;7678;50.058;8.306;2023-06-26T09:18:26;27.10;59.50
15156;DHT22;7678;50.058;8.306;2023-06-26T09:20:57;26.90;59.20
15156;DHT22;7678;50.058;8.306;2023-06-26T09:23:26;26.80;59.30
15156;DHT22;7678;50.058;8.306;2023-06-26T09:25:54;27.00;59.90
15156;DHT22;7678;50.058;8.306;2023-06-26T09:28:23;26.90;60.20
15156;DHT22;7678;50.058;8.306;2023-06-26T09:30:52;27.10;59.40
15156;DHT22;7678;50.058;8.306;2023-06-26T09:33:20;27.50;58.40
15156;DHT22;7678;50.058;8.306;2023-06-26T09:35:50;27.80;58.10
15156;DHT22;7678;50.058;8.306;2023-06-26T09:38:23;27.90;58.00
15156;DHT22;7678;50.058;8.306;2023-06-26T09:40:51;28.00;57.40
15156;DHT22;7678;50.058;8.306;2023-06-26T09:43:19;28.10;58.80
15156;DHT22;7678;50.058;8.306;2023-06-26T09:45:47;28.10;57.70
15156;DHT22;7678;50.058;8.306;2023-06-26T09:48:16;27.80;57.50
15156;DHT22;7678;50.058;8.306;2023-06-26T09:50:46;27.70;58.30
15156;DHT22;7678;50.058;8.306;2023-06-26T09:53:29;28.00;57.30
15156;DHT22;7678;50.058;8.306;2023-06-26T09:56:09;27.70;56.60
15156;DHT22;7678;50.058;8.306;2023-06-26T09:58:45;27.60;56.40
15156;DHT22;7678;50.058;8.306;2023-06-26T10:01:14;27.70;56.80
15156;DHT22;7678;50.058;8.306;2023-06-26T10:03:43;27.60;57.10
15156;DHT22;7678;50.058;8.306;2023-06-26T10:06:12;27.30;56.80
15156;DHT22;7678;50.058;8.306;2023-06-26T10:08:42;27.20;56.10
15156;DHT22;7678;50.058;8.306;2023-06-26T10:11:16;27.10;57.50
15156;DHT22;7678;50.058;8.306;2023-06-26T10:13:49;27.10;56.90
15156;DHT22;7678;50.058;8.306;2023-06-26T10:16:23;27.10;56.60
15156;DHT22;7678;50.058;8.306;2023-06-26T10:18:53;27.20;57.10
15156;DHT22;7678;50.058;8.306;2023-06-26T10:21:22;27.50;56.80
15156;DHT22;7678;50.058;8.306;2023-06-26T10:23:53;27.30;57.20
15156;DHT22;7678;50.058;8.306;2023-06-26T10:26:24;27.50;57.60
15156;DHT22;7678;50.058;8.306;2023-06-26T10:28:54;27.70;58.10
15156;DHT22;7678;50.058;8.306;2023-06-26T10:31:26;27.80;57.20
15156;DHT22;7678;50.058;8.306;2023-06-26T10:34:00;27.60;57.70
15156;DHT22;7678;50.058;8.306;2023-06-26T10:36:30;27.70;58.30
15156;DHT22;7678;50.058;8.306;2023-06-26T10:39:04;27.90;58.00
15156;DHT22;7678;50.058;8.306;2023-06-26T10:41:37;28.20;57.40
15156;DHT22;7678;50.058;8.306;2023-06-26T10:44:16;28.30;56.20
15156;DHT22;7678;50.058;8.306;2023-06-26T10:46:49;28.20;56.00
15156;DHT22;7678;50.058;8.306;2023-06-26T10:49:21;28.00;55.90
15156;DHT22;7678;50.058;8.306;2023-06-26T10:51:53;27.90;56.70
15156;DHT22;7678;50.058;8.306;2023-06-26T10:54:28;28.30;57.30
15156;DHT22;7678;50.058;8.306;2023-06-26T10:56:58;28.70;56.70
15156;DHT22;7678;50.058;8.306;2023-06-26T10:59:31;28.90;56.40
15156;DHT22;7678;50.058;8.306;2023-06-26T11:02:02;28.80;56.80
15156;DHT22;7678;50.058;8.306;2023-06-26T11:04:43;28.60;56.70
15156;DHT22;7678;50.058;8.306;2023-06-26T11:07:16;28.60;56.80
15156;DHT22;7678;50.058;8.306;2023-06-26T11:09:58;28.40;56.30
15156;DHT22;7678;50.058;8.306;2023-06-26T11:12:37;28.50;56.70
15156;DHT22;7678;50.058;8.306;2023-06-26T11:15:08;28.80;55.80
15156;DHT22;7678;50.058;8.306;2023-06-26T11:17:45;28.80;56.10
15156;DHT22;7678;50.058;8.306;2023-06-26T11:20:16;29.20;56.30
15156;DHT22;7678;50.058;8.306;2023-06-26T11:22:54;29.20;54.30
15156;DHT22;7678;50.058;8.306;2023-06-26T11:25:26;28.90;56.60
15156;DHT22;7678;50.058;8.306;2023-06-26T11:27:55;29.10;55.50
15156;DHT22;7678;50.058;8.306;2023-06-26T11:30:25;29.20;55.10
15156;DHT22;7678;50.058;8.306;2023-06-26T11:33:02;29.60;55.40
15156;DHT22;7678;50.058;8.306;2023-06-26T11:35:31;29.50;53.50
15156;DHT22;7678;50.058;8.306;2023-06-26T11:38:02;29.40;54.60
15156;DHT22;7678;50.058;8.306;2023-06-26T11:40:36;29.30;53.40
15156;DHT22;7678;50.058;8.306;2023-06-26T11:43:07;29.10;53.10
15156;DHT22;7678;50.058;8.306;2023-06-26T11:45:35;28.70;54.90
15156;DHT22;7678;50.058;8.306;2023-06-26T11:48:06;29.10;54.70
15156;DHT22;7678;50.058;8.306;2023-06-26T11:50:40;29.30;54.80
15156;DHT22;7678;50.058;8.306;2023-06-26T11:53:15;29.30;55.00
15156;DHT22;7678;50.058;8.306;2023-06-26T11:55:45;29.10;54.00
15156;DHT22;7678;50.058;8.306;2023-06-26T11:58:13;29.00;55.00
15156;DHT22;7678;50.058;8.306;2023-06-26T12:00:42;29.20;53.80
15156;DHT22;7678;50.058;8.306;2023-06-26T12:03:11;29.30;54.20
15156;DHT22;7678;50.058;8.306;2023-06-26T12:05:40;28.90;55.90
15156;DHT22;7678;50.058;8.306;2023-06-26T12:08:12;28.70;56.60
15156;DHT22;7678;50.058;8.306;2023-06-26T12:10:41;28.50;57.00
15156;DHT22;7678;50.058;8.306;2023-06-26T12:13:10;28.90;57.20
15156;DHT22;7678;50.058;8.306;2023-06-26T12:15:39;28.70;57.40
15156;DHT22;7678;50.058;8.306;2023-06-26T12:18:13;28.90;55.70
15156;DHT22;7678;50.058;8.306;2023-06-26T12:20:42;29.00;55.60
15156;DHT22;7678;50.058;8.306;2023-06-26T12:23:13;28.60;56.00
15156;DHT22;7678;50.058;8.306;2023-06-26T12:25:42;28.40;57.00
15156;DHT22;7678;50.058;8.306;2023-06-26T12:28:19;28.10;57.70
15156;DHT22;7678;50.058;8.306;2023-06-26T12:30:47;28.20;58.20
15156;DHT22;7678;50.058;8.306;2023-06-26T12:36:23;28.70;58.10
15156;DHT22;7678;50.058;8.306;2023-06-26T12:38:53;28.80;58.10
15156;DHT22;7678;50.058;8.306;2023-06-26T12:41:24;29.10;57.80
15156;DHT22;7678;50.058;8.306;2023-06-26T12:43:57;29.30;56.30
15156;DHT22;7678;50.058;8.306;2023-06-26T12:46:33;29.20;56.70
15156;DHT22;7678;50.058;8.306;2023-06-26T12:49:02;29.20;57.20
15156;DHT22;7678;50.058;8.306;2023-06-26T12:51:48;29.00;57.00
15156;DHT22;7678;50.058;8.306;2023-06-26T12:54:16;28.80;58.30
15156;DHT22;7678;50.058;8.306;2023-06-26T12:56:45;28.80;57.40
15156;DHT22;7678;50.058;8.306;2023-06-26T12:59:15;28.60;57.80
15156;DHT22;7678;50.058;8.306;2023-06-26T13:01:44;28.10;57.70
15156;DHT22;7678;50.058;8.306;2023-06-26T13:04:13;28.20;58.00
15156;DHT22;7678;50.058;8.306;2023-06-26T13:06:41;28.30;57.90
15156;DHT22;7678;50.058;8.306;2023-06-26T13:09:09;28.40;57.10
15156;DHT22;7678;50.058;8.306;2023-06-26T13:11:39;28.70;56.30
15156;DHT22;7678;50.058;8.306;2023-06-26T13:14:07;29.20;56.50
15156;DHT22;7678;50.058;8.306;2023-06-26T13:16:40;29.20;55.00
15156;DHT22;7678;50.058;8.306;2023-06-26T13:19:08;28.80;55.70
15156;DHT22;7678;50.058;8.306;2023-06-26T13:21:38;29.10;55.00
15156;DHT22;7678;50.058;8.306;2023-06-26T13:24:08;28.80;55.40
15156;DHT22;7678;50.058;8.306;2023-06-26T13:26:37;28.40;55.50
15156;DHT22;7678;50.058;8.306;2023-06-26T13:29:07;29.00;55.60
15156;DHT22;7678;50.058;8.306;2023-06-26T13:31:40;28.40;53.00
15156;DHT22;7678;50.058;8.306;2023-06-26T13:34:08;28.70;51.70
15156;DHT22;7678;50.058;8.306;2023-06-26T13:36:36;28.70;50.30
15156;DHT22;7678;50.058;8.306;2023-06-26T13:39:05;29.00;51.50
15156;DHT22;7678;50.058;8.306;2023-06-26T13:41:35;29.00;53.40
15156;DHT22;7678;50.058;8.306;2023-06-26T13:44:03;28.30;53.50
15156;DHT22;7678;50.058;8.306;2023-06-26T13:46:54;28.10;54.60
15156;DHT22;7678;50.058;8.306;2023-06-26T13:49:22;28.00;54.10
15156;DHT22;7678;50.058;8.306;2023-06-26T13:51:50;28.30;55.10
15156;DHT22;7678;50.058;8.306;2023-06-26T13:54:19;28.90;53.40
15156;DHT22;7678;50.058;8.306;2023-06-26T13:56:47;28.30;53.40
15156;DHT22;7678;50.058;8.306;2023-06-26T13:59:16;28.30;53.60
15156;DHT22;7678;50.058;8.306;2023-06-26T14:01:47;28.50;53.40
15156;DHT22;7678;50.058;8.306;2023-06-26T14:04:18;27.80;53.90
15156;DHT22;7678;50.058;8.306;2023-06-26T14:06:46;28.00;53.90
15156;DHT22;7678;50.058;8.306;2023-06-26T14:09:16;28.10;53.30
15156;DHT22;7678;50.058;8.306;2023-06-26T14:11:45;27.90;53.30
15156;DHT22;7678;50.058;8.306;2023-06-26T14:14:13;27.80;53.00
15156;DHT22;7678;50.058;8.306;2023-06-26T14:16:42;28.20;52.30
15156;DHT22;7678;50.058;8.306;2023-06-26T14:19:10;28.10;51.70
15156;DHT22;7678;50.058;8.306;2023-06-26T14:21:42;28.20;51.10
15156;DHT22;7678;50.058;8.306;2023-06-26T14:24:13;28.20;52.00
15156;DHT22;7678;50.058;8.306;2023-06-26T14:26:42;27.90;50.30
15156;DHT22;7678;50.058;8.306;2023-06-26T14:29:11;27.80;51.40
15156;DHT22;7678;50.058;8.306;2023-06-26T14:31:41;28.00;50.70
15156;DHT22;7678;50.058;8.306;2023-06-26T14:34:10;28.10;50.70
15156;DHT22;7678;50.058;8.306;2023-06-26T14:36:39;27.40;49.60
15156;DHT22;7678;50.058;8.306;2023-06-26T14:39:09;27.80;50.30
15156;DHT22;7678;50.058;8.306;2023-06-26T14:41:39;27.80;48.90
15156;DHT22;7678;50.058;8.306;2023-06-26T14:44:08;28.00;49.70
15156;DHT22;7678;50.058;8.306;2023-06-26T14:46:38;28.10;49.30
15156;DHT22;7678;50.058;8.306;2023-06-26T14:49:07;28.20;49.00
15156;DHT22;7678;50.058;8.306;2023-06-26T14:51:35;27.50;49.00
15156;DHT22;7678;50.058;8.306;2023-06-26T14:54:09;28.30;49.60
15156;DHT22;7678;50.058;8.306;2023-06-26T14:56:38;28.50;48.70
15156;DHT22;7678;50.058;8.306;2023-06-26T14:59:08;28.30;47.30
15156;DHT22;7678;50.058;8.306;2023-06-26T15:01:37;28.40;47.70
15156;DHT22;7678;50.058;8.306;2023-06-26T15:04:06;28.80;48.20
15156;DHT22;7678;50.058;8.306;2023-06-26T15:06:35;28.80;48.70
15156;DHT22;7678;50.058;8.306;2023-06-26T15:09:08;28.40;47.90
15156;DHT22;7678;50.058;8.306;2023-06-26T15:11:37;27.70;48.00
15156;DHT22;7678;50.058;8.306;2023-06-26T15:14:05;27.50;48.60
15156;DHT22;7678;50.058;8.306;2023-06-26T15:16:35;27.90;48.00
15156;DHT22;7678;50.058;8.306;2023-06-26T15:19:03;28.30;47.70
15156;DHT22;7678;50.058;8.306;2023-06-26T15:21:32;27.80;46.80
15156;DHT22;7678;50.058;8.306;2023-06-26T15:24:02;27.70;46.40
15156;DHT22;7678;50.058;8.306;2023-06-26T15:26:32;27.70;46.90
15156;DHT22;7678;50.058;8.306;2023-06-26T15:29:00;27.80;47.30
15156;DHT22;7678;50.058;8.306;2023-06-26T15:31:29;27.40;45.80
15156;DHT22;7678;50.058;8.306;2023-06-26T15:33:59;27.80;46.90
15156;DHT22;7678;50.058;8.306;2023-06-26T15:36:28;27.90;46.90
15156;DHT22;7678;50.058;8.306;2023-06-26T15:39:03;27.90;45.40
15156;DHT22;7678;50.058;8.306;2023-06-26T15:41:34;28.00;45.40
15156;DHT22;7678;50.058;8.306;2023-06-26T15:44:04;27.40;46.30
15156;DHT22;7678;50.058;8.306;2023-06-26T15:46:34;27.50;47.00
15156;DHT22;7678;50.058;8.306;2023-06-26T15:49:04;27.80;47.10
15156;DHT22;7678;50.058;8.306;2023-06-26T15:51:32;27.40;46.50
15156;DHT22;7678;50.058;8.306;2023-06-26T15:54:06;27.30;47.50
15156;DHT22;7678;50.058;8.306;2023-06-26T15:56:36;27.20;48.10
15156;DHT22;7678;50.058;8.306;2023-06-26T15:59:05;27.40;47.00
15156;DHT22;7678;50.058;8.306;2023-06-26T16:01:33;27.30;47.50
15156;DHT22;7678;50.058;8.306;2023-06-26T16:04:01;27.10;46.80